sensor_id;sensor_type;location;lat;lon;timestamp;temperature;humidity
38325;DHT22;24126;52.672;13.622;2023-05-10T00:01:35;15.60;50.30
38325;DHT22;24126;52.672;13.622;2023-05-10T00:04:02;15.50;50.30
38325;DHT22;24126;52.672;13.622;2023-05-10T00:06:29;15.50;50.40
38325;DHT22;24126;52.672;13.622;2023-05-10T00:08:57;15.40;50.60
38325;DHT22;24126;52.672;13.622;2023-05-10T00:11:24;15.40;50.70
38325;DHT22;24126;52.672;13.622;2023-05-10T00:13:51;15.30;51.00
38325;DHT22;24126;52.672;13.622;2023-05-10T00:16:18;15.30;50.90
38325;DHT22;24126;52.672;13.622;2023-05-10T00:18:45;15.30;51.00
38325;DHT22;24126;52.672;13.622;2023-05-10T00:21:12;15.20;51.20
38325;DHT22;24126;52.672;13.622;2023-05-10T00:23:39;15.20;51.20
38325;DHT22;24126;52.672;13.622;2023-05-10T00:26:06;15.20;51.40
38325;DHT22;24126;52.672;13.622;2023-05-10T00:28:33;15.20;51.40
38325;DHT22;24126;52.672;13.622;2023-05-10T00:31:00;15.10;51.50
38325;DHT22;24126;52.672;13.622;2023-05-10T00:33:29;15.10;51.60
38325;DHT22;24126;52.672;13.622;2023-05-10T00:35:56;15.10;51.80
38325;DHT22;24126;52.672;13.622;2023-05-10T00:38:23;15.10;51.90
38325;DHT22;24126;52.672;13.622;2023-05-10T00:40:50;15.10;51.90
38325;DHT22;24126;52.672;13.622;2023-05-10T00:43:25;15.00;52.00
38325;DHT22;24126;52.672;13.622;2023-05-10T00:45:52;15.00;52.00
38325;DHT22;24126;52.672;13.622;2023-05-10T00:48:19;15.00;52.00
38325;DHT22;24126;52.672;13.622;2023-05-10T00:50:46;15.00;52.20
38325;DHT22;24126;52.672;13.622;2023-05-10T00:53:14;15.00;52.00
38325;DHT22;24126;52.672;13.622;2023-05-10T00:55:41;15.00;52.40
38325;DHT22;24126;52.672;13.622;2023-05-10T00:58:09;14.90;52.50
38325;DHT22;24126;52.672;13.622;2023-05-10T01:00:36;14.90;52.40
38325;DHT22;24126;52.672;13.622;2023-05-10T01:03:04;14.90;52.50
38325;DHT22;24126;52.672;13.622;2023-05-10T01:05:31;14.90;52.70
38325;DHT22;24126;52.672;13.622;2023-05-10T01:07:58;14.90;52.60
38325;DHT22;24126;52.672;13.622;2023-05-10T01:10:26;14.90;52.70
38325;DHT22;24126;52.672;13.622;2023-05-10T01:12:53;14.90;52.80
38325;DHT22;24126;52.672;13.622;2023-05-10T01:15:20;14.80;52.80
38325;DHT22;24126;52.672;13.622;2023-05-10T01:17:48;14.80;52.90
38325;DHT22;24126;52.672;13.622;2023-05-10T01:20:15;14.80;53.00
38325;DHT22;24126;52.672;13.622;2023-05-10T01:25:32;14.70;53.20
38325;DHT22;24126;52.672;13.622;2023-05-10T01:33:11;14.60;53.50
38325;DHT22;24126;52.672;13.622;2023-05-10T01:36:03;14.60;53.60
38325;DHT22;24126;52.672;13.622;2023-05-10T01:41:12;14.60;53.50
38325;DHT22;24126;52.672;13.622;2023-05-10T01:44:02;14.60;53.50
38325;DHT22;24126;52.672;13.622;2023-05-10T01:46:35;14.60;53.60
38325;DHT22;24126;52.672;13.622;2023-05-10T01:49:03;14.60;53.50
38325;DHT22;24126;52.672;13.622;2023-05-10T01:51:36;14.60;53.60
38325;DHT22;24126;52.672;13.622;2023-05-10T01:54:04;14.60;53.70
38325;DHT22;24126;52.672;13.622;2023-05-10T01:56:32;14.50;53.70
38325;DHT22;24126;52.672;13.622;2023-05-10T01:59:00;14.60;53.80
38325;DHT22;24126;52.672;13.622;2023-05-10T02:01:29;14.60;53.70
38325;DHT22;24126;52.672;13.622;2023-05-10T02:03:56;14.50;53.60
38325;DHT22;24126;52.672;13.622;2023-05-10T02:06:24;14.50;53.80
38325;DHT22;24126;52.672;13.622;2023-05-10T02:08:52;14.50;53.80
38325;DHT22;24126;52.672;13.622;2023-05-10T02:11:20;14.50;53.80
38325;DHT22;24126;52.672;13.622;2023-05-10T02:13:49;14.50;53.80
38325;DHT22;24126;52.672;13.622;2023-05-10T02:16:17;14.50;53.60
38325;DHT22;24126;52.672;13.622;2023-05-10T02:18:45;14.50;53.70
38325;DHT22;24126;52.672;13.622;2023-05-10T02:21:12;14.50;53.70
38325;DHT22;24126;52.672;13.622;2023-05-10T02:23:40;14.50;53.70
38325;DHT22;24126;52.672;13.622;2023-05-10T02:26:07;14.50;53.80
38325;DHT22;24126;52.672;13.622;2023-05-10T02:28:35;14.50;53.80
38325;DHT22;24126;52.672;13.622;2023-05-10T02:31:03;14.50;53.80
38325;DHT22;24126;52.672;13.622;2023-05-10T02:33:31;14.50;53.70
38325;DHT22;24126;52.672;13.622;2023-05-10T02:35:59;14.40;53.90
38325;DHT22;24126;52.672;13.622;2023-05-10T02:38:26;14.40;53.90
38325;DHT22;24126;52.672;13.622;2023-05-10T02:40:54;14.30;54.00
38325;DHT22;24126;52.672;13.622;2023-05-10T02:43:22;14.30;54.00
38325;DHT22;24126;52.672;13.622;2023-05-10T02:45:49;14.30;54.10
38325;DHT22;24126;52.672;13.622;2023-05-10T02:48:16;14.30;54.10
38325;DHT22;24126;52.672;13.622;2023-05-10T02:50:44;14.30;54.10
38325;DHT22;24126;52.672;13.622;2023-05-10T02:53:11;14.30;54.10
38325;DHT22;24126;52.672;13.622;2023-05-10T02:55:41;14.30;54.20
38325;DHT22;24126;52.672;13.622;2023-05-10T02:58:10;14.30;54.20
38325;DHT22;24126;52.672;13.622;2023-05-10T03:00:37;14.20;54.40
38325;DHT22;24126;52.672;13.622;2023-05-10T03:03:04;14.20;54.30
38325;DHT22;24126;52.672;13.622;2023-05-10T03:05:33;14.20;54.30
38325;DHT22;24126;52.672;13.622;2023-05-10T03:08:02;14.20;54.40
38325;DHT22;24126;52.672;13.622;2023-05-10T03:10:30;14.20;54.50
38325;DHT22;24126;52.672;13.622;2023-05-10T03:18:20;14.10;54.60
38325;DHT22;24126;52.672;13.622;2023-05-10T03:20:52;14.10;54.50
38325;DHT22;24126;52.672;13.622;2023-05-10T03:25:56;14.10;54.60
38325;DHT22;24126;52.672;13.622;2023-05-10T03:28:24;14.00;54.70
38325;DHT22;24126;52.672;13.622;2023-05-10T03:30:52;14.00;54.90
38325;DHT22;24126;52.672;13.622;2023-05-10T03:33:20;14.00;54.80
38325;DHT22;24126;52.672;13.622;2023-05-10T03:35:47;14.00;54.80
38325;DHT22;24126;52.672;13.622;2023-05-10T03:38:15;14.00;54.90
38325;DHT22;24126;52.672;13.622;2023-05-10T03:40:42;14.00;54.70
38325;DHT22;24126;52.672;13.622;2023-05-10T03:43:09;14.00;54.90
38325;DHT22;24126;52.672;13.622;2023-05-10T03:45:36;14.00;54.90
38325;DHT22;24126;52.672;13.622;2023-05-10T03:48:03;14.00;54.90
38325;DHT22;24126;52.672;13.622;2023-05-10T03:50:31;14.00;55.10
38325;DHT22;24126;52.672;13.622;2023-05-10T03:52:58;14.00;55.50
38325;DHT22;24126;52.672;13.622;2023-05-10T03:55:26;14.00;55.70
38325;DHT22;24126;52.672;13.622;2023-05-10T03:57:54;14.10;55.40
38325;DHT22;24126;52.672;13.622;2023-05-10T04:00:22;14.20;55.20
38325;DHT22;24126;52.672;13.622;2023-05-10T04:02:52;14.20;55.00
38325;DHT22;24126;52.672;13.622;2023-05-10T04:05:20;14.10;55.00
38325;DHT22;24126;52.672;13.622;2023-05-10T04:07:47;14.20;55.00
38325;DHT22;24126;52.672;13.622;2023-05-10T04:10:15;14.10;54.80
38325;DHT22;24126;52.672;13.622;2023-05-10T04:12:43;14.20;54.90
38325;DHT22;24126;52.672;13.622;2023-05-10T04:15:10;14.20;54.80
38325;DHT22;24126;52.672;13.622;2023-05-10T04:17:37;14.20;55.10
38325;DHT22;24126;52.672;13.622;2023-05-10T04:20:04;14.40;55.90
38325;DHT22;24126;52.672;13.622;2023-05-10T04:22:32;14.80;55.80
38325;DHT22;24126;52.672;13.622;2023-05-10T04:24:59;15.30;55.30
38325;DHT22;24126;52.672;13.622;2023-05-10T04:27:26;16.00;54.60
38325;DHT22;24126;52.672;13.622;2023-05-10T04:29:53;16.80;53.40
38325;DHT22;24126;52.672;13.622;2023-05-10T04:32:20;17.80;51.50
38325;DHT22;24126;52.672;13.622;2023-05-10T04:34:47;19.00;49.70
38325;DHT22;24126;52.672;13.622;2023-05-10T04:37:14;20.20;47.10
38325;DHT22;24126;52.672;13.622;2023-05-10T04:39:41;21.50;44.60
38325;DHT22;24126;52.672;13.622;2023-05-10T04:42:08;22.80;42.00
38325;DHT22;24126;52.672;13.622;2023-05-10T04:44:36;24.00;39.20
38325;DHT22;24126;52.672;13.622;2023-05-10T04:47:03;25.10;37.00
38325;DHT22;24126;52.672;13.622;2023-05-10T04:49:30;26.20;34.90
38325;DHT22;24126;52.672;13.622;2023-05-10T04:51:58;27.20;33.00
38325;DHT22;24126;52.672;13.622;2023-05-10T04:54:25;28.30;31.20
38325;DHT22;24126;52.672;13.622;2023-05-10T04:56:52;29.20;29.80
38325;DHT22;24126;52.672;13.622;2023-05-10T04:59:19;30.10;28.70
38325;DHT22;24126;52.672;13.622;2023-05-10T05:01:47;30.80;27.50
38325;DHT22;24126;52.672;13.622;2023-05-10T05:04:14;31.40;27.30
38325;DHT22;24126;52.672;13.622;2023-05-10T05:06:41;32.00;26.10
38325;DHT22;24126;52.672;13.622;2023-05-10T05:09:08;32.40;25.60
38325;DHT22;24126;52.672;13.622;2023-05-10T05:11:36;32.40;24.60
38325;DHT22;24126;52.672;13.622;2023-05-10T05:14:04;32.10;24.50
38325;DHT22;24126;52.672;13.622;2023-05-10T05:16:31;31.40;24.80
38325;DHT22;24126;52.672;13.622;2023-05-10T05:18:58;30.20;25.80
38325;DHT22;24126;52.672;13.622;2023-05-10T05:21:26;29.00;27.00
38325;DHT22;24126;52.672;13.622;2023-05-10T05:23:54;27.60;28.40
38325;DHT22;24126;52.672;13.622;2023-05-10T05:26:21;26.20;30.00
38325;DHT22;24126;52.672;13.622;2023-05-10T05:28:48;25.10;31.50
38325;DHT22;24126;52.672;13.622;2023-05-10T05:31:18;24.20;33.50
38325;DHT22;24126;52.672;13.622;2023-05-10T05:33:45;23.60;35.00
38325;DHT22;24126;52.672;13.622;2023-05-10T05:36:12;23.10;36.00
38325;DHT22;24126;52.672;13.622;2023-05-10T05:38:39;22.70;36.50
38325;DHT22;24126;52.672;13.622;2023-05-10T05:41:06;22.40;37.40
38325;DHT22;24126;52.672;13.622;2023-05-10T05:43:33;22.30;37.60
38325;DHT22;24126;52.672;13.622;2023-05-10T05:46:00;22.00;37.80
38325;DHT22;24126;52.672;13.622;2023-05-10T05:48:29;21.80;38.50
38325;DHT22;24126;52.672;13.622;2023-05-10T05:50:56;21.60;39.10
38325;DHT22;24126;52.672;13.622;2023-05-10T05:53:23;21.50;39.00
38325;DHT22;24126;52.672;13.622;2023-05-10T05:55:54;21.40;40.00
38325;DHT22;24126;52.672;13.622;2023-05-10T05:58:21;21.40;40.00
38325;DHT22;24126;52.672;13.622;2023-05-10T06:00:48;21.40;39.90
38325;DHT22;24126;52.672;13.622;2023-05-10T06:03:15;21.50;39.90
38325;DHT22;24126;52.672;13.622;2023-05-10T06:05:42;21.60;39.80
38325;DHT22;24126;52.672;13.622;2023-05-10T06:08:10;21.60;39.80
38325;DHT22;24126;52.672;13.622;2023-05-10T06:10:37;21.70;39.40
38325;DHT22;24126;52.672;13.622;2023-05-10T06:13:04;21.70;40.00
38325;DHT22;24126;52.672;13.622;2023-05-10T06:15:31;21.80;39.40
38325;DHT22;24126;52.672;13.622;2023-05-10T06:17:58;22.00;39.20
38325;DHT22;24126;52.672;13.622;2023-05-10T06:20:25;22.00;39.40
38325;DHT22;24126;52.672;13.622;2023-05-10T06:22:52;22.10;39.40
38325;DHT22;24126;52.672;13.622;2023-05-10T06:25:19;22.20;39.20
38325;DHT22;24126;52.672;13.622;2023-05-10T06:27:47;22.30;38.80
38325;DHT22;24126;52.672;13.622;2023-05-10T06:30:14;22.40;38.80
38325;DHT22;24126;52.672;13.622;2023-05-10T06:32:41;22.40;38.70
38325;DHT22;24126;52.672;13.622;2023-05-10T06:35:09;22.50;39.10
38325;DHT22;24126;52.672;13.622;2023-05-10T06:37:36;22.60;38.80
38325;DHT22;24126;52.672;13.622;2023-05-10T06:40:04;22.70;38.50
38325;DHT22;24126;52.672;13.622;2023-05-10T06:42:32;22.80;38.50
38325;DHT22;24126;52.672;13.622;2023-05-10T06:44:59;22.80;38.80
38325;DHT22;24126;52.672;13.622;2023-05-10T06:47:26;22.90;38.40
38325;DHT22;24126;52.672;13.622;2023-05-10T06:49:53;22.90;38.30
38325;DHT22;24126;52.672;13.622;2023-05-10T06:52:20;23.00;38.40
38325;DHT22;24126;52.672;13.622;2023-05-10T06:54:47;23.00;38.70
38325;DHT22;24126;52.672;13.622;2023-05-10T06:57:14;23.10;38.20
38325;DHT22;24126;52.672;13.622;2023-05-10T06:59:41;23.20;38.20
38325;DHT22;24126;52.672;13.622;2023-05-10T07:02:09;23.20;38.10
38325;DHT22;24126;52.672;13.622;2023-05-10T07:04:36;23.30;38.40
38325;DHT22;24126;52.672;13.622;2023-05-10T07:07:03;23.30;38.70
38325;DHT22;24126;52.672;13.622;2023-05-10T07:09:30;23.40;38.30
38325;DHT22;24126;52.672;13.622;2023-05-10T07:11:57;23.50;38.40
38325;DHT22;24126;52.672;13.622;2023-05-10T07:14:24;23.60;38.00
38325;DHT22;24126;52.672;13.622;2023-05-10T07:16:51;23.80;37.80
38325;DHT22;24126;52.672;13.622;2023-05-10T07:19:18;23.80;37.50
38325;DHT22;24126;52.672;13.622;2023-05-10T07:21:45;24.00;37.50
38325;DHT22;24126;52.672;13.622;2023-05-10T07:24:15;24.10;37.30
38325;DHT22;24126;52.672;13.622;2023-05-10T07:26:42;24.20;37.50
38325;DHT22;24126;52.672;13.622;2023-05-10T07:29:09;24.20;37.50
38325;DHT22;24126;52.672;13.622;2023-05-10T07:31:36;24.30;37.10
38325;DHT22;24126;52.672;13.622;2023-05-10T07:34:03;24.40;37.40
38325;DHT22;24126;52.672;13.622;2023-05-10T07:36:30;24.40;37.30
38325;DHT22;24126;52.672;13.622;2023-05-10T07:38:58;24.50;37.30
38325;DHT22;24126;52.672;13.622;2023-05-10T07:41:25;24.50;37.40
38325;DHT22;24126;52.672;13.622;2023-05-10T07:43:52;24.60;36.90
38325;DHT22;24126;52.672;13.622;2023-05-10T07:46:20;24.70;36.80
38325;DHT22;24126;52.672;13.622;2023-05-10T07:48:47;24.90;36.90
38325;DHT22;24126;52.672;13.622;2023-05-10T07:51:14;24.90;36.90
38325;DHT22;24126;52.672;13.622;2023-05-10T07:53:41;25.00;36.90
38325;DHT22;24126;52.672;13.622;2023-05-10T07:56:21;25.00;36.60
38325;DHT22;24126;52.672;13.622;2023-05-10T07:58:48;25.20;36.60
38325;DHT22;24126;52.672;13.622;2023-05-10T08:01:15;25.20;36.10
38325;DHT22;24126;52.672;13.622;2023-05-10T08:03:42;25.30;36.20
38325;DHT22;24126;52.672;13.622;2023-05-10T08:06:10;25.30;36.40
38325;DHT22;24126;52.672;13.622;2023-05-10T08:08:37;25.40;36.40
38325;DHT22;24126;52.672;13.622;2023-05-10T08:11:04;25.60;36.20
38325;DHT22;24126;52.672;13.622;2023-05-10T08:13:31;25.80;35.90
38325;DHT22;24126;52.672;13.622;2023-05-10T08:15:58;26.00;35.60
38325;DHT22;24126;52.672;13.622;2023-05-10T08:18:29;26.30;35.10
38325;DHT22;24126;52.672;13.622;2023-05-10T08:20:56;26.50;34.80
38325;DHT22;24126;52.672;13.622;2023-05-10T08:23:23;26.50;34.60
38325;DHT22;24126;52.672;13.622;2023-05-10T08:25:50;26.40;34.50
38325;DHT22;24126;52.672;13.622;2023-05-10T08:28:17;26.40;34.60
38325;DHT22;24126;52.672;13.622;2023-05-10T08:30:44;26.40;34.80
38325;DHT22;24126;52.672;13.622;2023-05-10T08:33:11;26.50;34.90
38325;DHT22;24126;52.672;13.622;2023-05-10T08:35:38;26.60;34.50
38325;DHT22;24126;52.672;13.622;2023-05-10T08:38:05;26.80;34.40
38325;DHT22;24126;52.672;13.622;2023-05-10T08:40:32;27.00;34.20
38325;DHT22;24126;52.672;13.622;2023-05-10T08:43:05;27.10;34.10
38325;DHT22;24126;52.672;13.622;2023-05-10T08:45:33;27.20;33.80
38325;DHT22;24126;52.672;13.622;2023-05-10T08:48:05;27.30;34.00
38325;DHT22;24126;52.672;13.622;2023-05-10T08:50:33;27.40;34.60
38325;DHT22;24126;52.672;13.622;2023-05-10T08:53:03;27.50;33.50
38325;DHT22;24126;52.672;13.622;2023-05-10T08:55:31;27.50;33.20
38325;DHT22;24126;52.672;13.622;2023-05-10T08:57:59;27.50;32.90
38325;DHT22;24126;52.672;13.622;2023-05-10T09:00:27;27.50;33.50
38325;DHT22;24126;52.672;13.622;2023-05-10T09:02:54;27.60;33.30
38325;DHT22;24126;52.672;13.622;2023-05-10T09:05:22;27.70;33.40
38325;DHT22;24126;52.672;13.622;2023-05-10T09:07:50;27.80;33.30
38325;DHT22;24126;52.672;13.622;2023-05-10T09:10:17;27.80;32.90
38325;DHT22;24126;52.672;13.622;2023-05-10T09:12:44;27.90;33.50
38325;DHT22;24126;52.672;13.622;2023-05-10T09:15:12;28.10;32.70
38325;DHT22;24126;52.672;13.622;2023-05-10T09:17:42;28.20;32.50
38325;DHT22;24126;52.672;13.622;2023-05-10T09:20:09;28.30;32.70
38325;DHT22;24126;52.672;13.622;2023-05-10T09:22:36;28.40;32.70
38325;DHT22;24126;52.672;13.622;2023-05-10T09:25:05;28.50;32.70
38325;DHT22;24126;52.672;13.622;2023-05-10T09:27:32;28.50;32.70
38325;DHT22;24126;52.672;13.622;2023-05-10T09:29:59;28.50;32.40
38325;DHT22;24126;52.672;13.622;2023-05-10T09:32:39;28.50;32.80
38325;DHT22;24126;52.672;13.622;2023-05-10T09:35:10;28.40;32.70
38325;DHT22;24126;52.672;13.622;2023-05-10T09:37:42;28.30;32.30
38325;DHT22;24126;52.672;13.622;2023-05-10T09:40:17;28.40;32.20
38325;DHT22;24126;52.672;13.622;2023-05-10T09:42:52;28.60;31.90
38325;DHT22;24126;52.672;13.622;2023-05-10T09:45:19;28.70;32.10
38325;DHT22;24126;52.672;13.622;2023-05-10T09:47:46;28.90;32.10
38325;DHT22;24126;52.672;13.622;2023-05-10T09:50:13;29.10;31.50
38325;DHT22;24126;52.672;13.622;2023-05-10T09:52:50;29.20;31.60
38325;DHT22;24126;52.672;13.622;2023-05-10T09:55:18;29.10;31.70
38325;DHT22;24126;52.672;13.622;2023-05-10T09:57:46;29.10;31.60
38325;DHT22;24126;52.672;13.622;2023-05-10T10:00:20;29.30;32.10
38325;DHT22;24126;52.672;13.622;2023-05-10T10:02:53;29.40;31.70
38325;DHT22;24126;52.672;13.622;2023-05-10T10:05:21;29.40;31.00
38325;DHT22;24126;52.672;13.622;2023-05-10T10:07:48;29.30;30.60
38325;DHT22;24126;52.672;13.622;2023-05-10T10:10:16;29.30;31.30
38325;DHT22;24126;52.672;13.622;2023-05-10T10:12:43;29.30;31.20
38325;DHT22;24126;52.672;13.622;2023-05-10T10:15:10;29.40;30.90
38325;DHT22;24126;52.672;13.622;2023-05-10T10:17:37;29.50;31.30
38325;DHT22;24126;52.672;13.622;2023-05-10T10:20:06;29.60;31.00
38325;DHT22;24126;52.672;13.622;2023-05-10T10:22:33;29.70;31.20
38325;DHT22;24126;52.672;13.622;2023-05-10T10:25:00;29.80;30.50
38325;DHT22;24126;52.672;13.622;2023-05-10T10:33:13;29.70;30.20
38325;DHT22;24126;52.672;13.622;2023-05-10T10:35:45;29.70;30.60
38325;DHT22;24126;52.672;13.622;2023-05-10T10:38:12;29.70;30.30
38325;DHT22;24126;52.672;13.622;2023-05-10T10:40:39;29.70;30.80
38325;DHT22;24126;52.672;13.622;2023-05-10T10:43:29;29.60;31.00
38325;DHT22;24126;52.672;13.622;2023-05-10T10:46:16;29.50;30.40
38325;DHT22;24126;52.672;13.622;2023-05-10T10:48:50;29.50;30.90
38325;DHT22;24126;52.672;13.622;2023-05-10T10:51:21;29.60;31.40
38325;DHT22;24126;52.672;13.622;2023-05-10T10:53:48;29.60;30.80
38325;DHT22;24126;52.672;13.622;2023-05-10T10:56:15;29.60;30.60
38325;DHT22;24126;52.672;13.622;2023-05-10T10:58:48;29.60;30.60
38325;DHT22;24126;52.672;13.622;2023-05-10T11:01:17;29.60;30.30
38325;DHT22;24126;52.672;13.622;2023-05-10T11:04:18;29.60;30.20
38325;DHT22;24126;52.672;13.622;2023-05-10T11:06:38;29.60;30.40
38325;DHT22;24126;52.672;13.622;2023-05-10T11:09:12;29.70;30.90
38325;DHT22;24126;52.672;13.622;2023-05-10T11:11:49;29.70;30.90
38325;DHT22;24126;52.672;13.622;2023-05-10T11:14:19;29.70;31.80
38325;DHT22;24126;52.672;13.622;2023-05-10T11:16:47;29.80;31.10
38325;DHT22;24126;52.672;13.622;2023-05-10T11:19:15;29.80;30.80
38325;DHT22;24126;52.672;13.622;2023-05-10T11:24:13;29.90;31.60
38325;DHT22;24126;52.672;13.622;2023-05-10T11:26:40;30.00;30.90
38325;DHT22;24126;52.672;13.622;2023-05-10T11:29:07;30.00;31.30
38325;DHT22;24126;52.672;13.622;2023-05-10T11:31:35;29.90;31.20
38325;DHT22;24126;52.672;13.622;2023-05-10T11:34:03;29.90;30.30
38325;DHT22;24126;52.672;13.622;2023-05-10T11:36:34;29.90;30.40
38325;DHT22;24126;52.672;13.622;2023-05-10T11:39:01;30.00;30.10
38325;DHT22;24126;52.672;13.622;2023-05-10T11:41:29;30.00;30.20
38325;DHT22;24126;52.672;13.622;2023-05-10T11:43:57;29.90;31.40
38325;DHT22;24126;52.672;13.622;2023-05-10T11:46:25;29.70;30.90
38325;DHT22;24126;52.672;13.622;2023-05-10T11:48:55;29.60;30.50
38325;DHT22;24126;52.672;13.622;2023-05-10T11:51:23;29.60;31.20
38325;DHT22;24126;52.672;13.622;2023-05-10T11:53:52;29.70;31.10
38325;DHT22;24126;52.672;13.622;2023-05-10T11:56:19;29.80;30.30
38325;DHT22;24126;52.672;13.622;2023-05-10T11:58:56;29.70;30.00
38325;DHT22;24126;52.672;13.622;2023-05-10T12:01:24;29.70;30.40
38325;DHT22;24126;52.672;13.622;2023-05-10T12:03:52;29.60;31.00
38325;DHT22;24126;52.672;13.622;2023-05-10T12:06:20;29.60;31.20
38325;DHT22;24126;52.672;13.622;2023-05-10T12:08:47;29.70;30.80
38325;DHT22;24126;52.672;13.622;2023-05-10T12:11:18;29.60;30.00
38325;DHT22;24126;52.672;13.622;2023-05-10T12:13:47;29.50;30.00
38325;DHT22;24126;52.672;13.622;2023-05-10T12:16:16;29.40;30.70
38325;DHT22;24126;52.672;13.622;2023-05-10T12:18:43;29.40;31.00
38325;DHT22;24126;52.672;13.622;2023-05-10T12:21:11;29.40;30.60
38325;DHT22;24126;52.672;13.622;2023-05-10T12:23:39;29.30;30.50
38325;DHT22;24126;52.672;13.622;2023-05-10T12:26:06;29.30;31.30
38325;DHT22;24126;52.672;13.622;2023-05-10T12:28:35;29.30;30.00
38325;DHT22;24126;52.672;13.622;2023-05-10T12:31:02;29.20;30.60
38325;DHT22;24126;52.672;13.622;2023-05-10T12:33:36;29.10;30.20
38325;DHT22;24126;52.672;13.622;2023-05-10T12:36:07;29.10;30.70
38325;DHT22;24126;52.672;13.622;2023-05-10T12:38:35;29.10;30.00
38325;DHT22;24126;52.672;13.622;2023-05-10T12:41:04;29.10;30.70
38325;DHT22;24126;52.672;13.622;2023-05-10T12:43:31;29.10;30.30
38325;DHT22;24126;52.672;13.622;2023-05-10T12:46:08;29.20;30.10
38325;DHT22;24126;52.672;13.622;2023-05-10T12:48:36;29.30;31.00
38325;DHT22;24126;52.672;13.622;2023-05-10T12:51:05;29.30;31.10
38325;DHT22;24126;52.672;13.622;2023-05-10T12:53:35;29.50;30.40
38325;DHT22;24126;52.672;13.622;2023-05-10T12:56:02;29.50;30.00
38325;DHT22;24126;52.672;13.622;2023-05-10T12:58:29;29.50;30.30
38325;DHT22;24126;52.672;13.622;2023-05-10T13:00:57;29.50;29.90
38325;DHT22;24126;52.672;13.622;2023-05-10T13:03:24;29.40;30.10
38325;DHT22;24126;52.672;13.622;2023-05-10T13:05:51;29.40;30.20
38325;DHT22;24126;52.672;13.622;2023-05-10T13:08:18;29.30;30.40
38325;DHT22;24126;52.672;13.622;2023-05-10T13:10:45;29.30;30.00
38325;DHT22;24126;52.672;13.622;2023-05-10T13:13:12;29.20;29.70
38325;DHT22;24126;52.672;13.622;2023-05-10T13:15:39;29.20;29.80
38325;DHT22;24126;52.672;13.622;2023-05-10T13:18:06;29.10;29.90
38325;DHT22;24126;52.672;13.622;2023-05-10T13:20:34;29.00;30.00
38325;DHT22;24126;52.672;13.622;2023-05-10T13:23:01;29.00;30.00
38325;DHT22;24126;52.672;13.622;2023-05-10T13:25:28;29.10;29.80
38325;DHT22;24126;52.672;13.622;2023-05-10T13:27:55;29.00;29.50
38325;DHT22;24126;52.672;13.622;2023-05-10T13:30:22;29.00;30.00
38325;DHT22;24126;52.672;13.622;2023-05-10T13:32:50;29.00;30.20
38325;DHT22;24126;52.672;13.622;2023-05-10T13:35:17;28.90;30.10
38325;DHT22;24126;52.672;13.622;2023-05-10T13:37:44;28.90;30.10
38325;DHT22;24126;52.672;13.622;2023-05-10T13:40:12;28.80;29.60
38325;DHT22;24126;52.672;13.622;2023-05-10T13:42:39;28.80;29.40
38325;DHT22;24126;52.672;13.622;2023-05-10T13:45:06;28.80;29.80
38325;DHT22;24126;52.672;13.622;2023-05-10T13:47:34;28.80;29.70
38325;DHT22;24126;52.672;13.622;2023-05-10T13:50:01;28.80;29.60
38325;DHT22;24126;52.672;13.622;2023-05-10T13:52:29;28.70;30.00
38325;DHT22;24126;52.672;13.622;2023-05-10T13:54:57;28.70;29.90
38325;DHT22;24126;52.672;13.622;2023-05-10T13:57:24;28.70;30.10
38325;DHT22;24126;52.672;13.622;2023-05-10T13:59:51;28.70;29.90
38325;DHT22;24126;52.672;13.622;2023-05-10T14:02:19;28.70;30.00
38325;DHT22;24126;52.672;13.622;2023-05-10T14:04:46;28.80;30.10
38325;DHT22;24126;52.672;13.622;2023-05-10T14:07:14;28.80;30.10
38325;DHT22;24126;52.672;13.622;2023-05-10T14:09:41;28.80;30.00
38325;DHT22;24126;52.672;13.622;2023-05-10T14:12:08;28.70;30.20
38325;DHT22;24126;52.672;13.622;2023-05-10T14:14:35;28.60;29.60
38325;DHT22;24126;52.672;13.622;2023-05-10T14:17:02;28.60;29.80
38325;DHT22;24126;52.672;13.622;2023-05-10T14:19:29;28.70;30.00
38325;DHT22;24126;52.672;13.622;2023-05-10T14:21:58;28.70;30.00
38325;DHT22;24126;52.672;13.622;2023-05-10T14:24:25;28.70;29.70
38325;DHT22;24126;52.672;13.622;2023-05-10T14:26:52;28.70;29.50
38325;DHT22;24126;52.672;13.622;2023-05-10T14:29:20;28.70;29.70
38325;DHT22;24126;52.672;13.622;2023-05-10T14:31:47;28.70;29.80
38325;DHT22;24126;52.672;13.622;2023-05-10T14:34:14;28.60;29.70
38325;DHT22;24126;52.672;13.622;2023-05-10T14:36:41;28.60;29.10
38325;DHT22;24126;52.672;13.622;2023-05-10T14:39:08;28.60;29.20
38325;DHT22;24126;52.672;13.622;2023-05-10T14:41:38;28.60;29.30
38325;DHT22;24126;52.672;13.622;2023-05-10T14:44:06;28.50;29.10
38325;DHT22;24126;52.672;13.622;2023-05-10T14:46:33;28.40;29.10
38325;DHT22;24126;52.672;13.622;2023-05-10T14:49:01;28.30;29.30
38325;DHT22;24126;52.672;13.622;2023-05-10T14:51:28;28.20;29.00
38325;DHT22;24126;52.672;13.622;2023-05-10T14:53:55;28.10;29.40
38325;DHT22;24126;52.672;13.622;2023-05-10T14:56:22;28.00;29.90
38325;DHT22;24126;52.672;13.622;2023-05-10T14:58:49;28.00;30.40
38325;DHT22;24126;52.672;13.622;2023-05-10T15:01:17;28.00;30.50
38325;DHT22;24126;52.672;13.622;2023-05-10T15:03:44;28.00;30.00
38325;DHT22;24126;52.672;13.622;2023-05-10T15:06:13;28.00;29.30
38325;DHT22;24126;52.672;13.622;2023-05-10T15:08:40;27.90;29.00
38325;DHT22;24126;52.672;13.622;2023-05-10T15:11:07;27.80;29.20
38325;DHT22;24126;52.672;13.622;2023-05-10T15:13:34;27.80;29.30
38325;DHT22;24126;52.672;13.622;2023-05-10T15:16:02;27.70;29.80
38325;DHT22;24126;52.672;13.622;2023-05-10T15:18:29;27.60;29.90
38325;DHT22;24126;52.672;13.622;2023-05-10T15:20:56;27.60;29.90
38325;DHT22;24126;52.672;13.622;2023-05-10T15:23:23;27.60;30.00
38325;DHT22;24126;52.672;13.622;2023-05-10T15:25:51;27.70;29.70
38325;DHT22;24126;52.672;13.622;2023-05-10T15:28:21;27.80;30.60
38325;DHT22;24126;52.672;13.622;2023-05-10T15:30:48;27.80;31.10
38325;DHT22;24126;52.672;13.622;2023-05-10T15:33:15;27.90;30.90
38325;DHT22;24126;52.672;13.622;2023-05-10T15:35:42;27.90;30.60
38325;DHT22;24126;52.672;13.622;2023-05-10T15:38:10;27.80;30.80
38325;DHT22;24126;52.672;13.622;2023-05-10T15:40:37;27.80;31.00
38325;DHT22;24126;52.672;13.622;2023-05-10T15:43:07;27.80;30.60
38325;DHT22;24126;52.672;13.622;2023-05-10T15:45:34;27.80;31.20
38325;DHT22;24126;52.672;13.622;2023-05-10T15:48:01;27.80;31.20